Time;durP1;ratioP1;P1;durP2;ratioP2;P2;SDS_P1;SDS_P2;PMS_P1;PMS_P2;Temp;Humidity;BMP_temperature;BMP_pressure;BME280_temperature;BME280_humidity;BME280_pressure;Samples;Min_cycle;Max_cycle;Signal;HPM_P1;HPM_P2
2022/06/17 00:01:04;;;;;;;11.32;5.85;;;;;;;19.71;59.97;102247.09;5034338;28;20115;-49
2022/06/17 00:03:52;;;;;;;10.18;5.90;;;;;;;19.72;59.69;102236.84;5016565;28;20489;-47
2022/06/17 00:06:52;;;;;;;8.77;5.57;;;;;;;19.72;59.48;102245.97;5023848;28;20045;-47
2022/06/17 00:09:22;;;;;;;11.40;5.70;;;;;;;19.76;59.59;102240.66;5010159;28;20050;-47
2022/06/17 00:12:13;;;;;;;10.07;5.95;;;;;;;19.75;59.38;102237.09;5024133;28;20045;-47
2022/06/17 00:15:35;;;;;;;9.27;5.63;;;;;;;19.73;59.23;102238.50;5026998;28;20042;-48
2022/06/17 00:18:17;;;;;;;12.18;5.85;;;;;;;19.67;59.63;102243.22;5020137;28;20743;-48
2022/06/17 00:21:04;;;;;;;10.40;5.80;;;;;;;19.63;59.55;102244.94;5028300;28;20096;-49
2022/06/17 00:23:53;;;;;;;10.10;5.55;;;;;;;19.61;59.59;102244.41;5022658;28;20412;-51
2022/06/17 00:26:40;;;;;;;9.75;5.82;;;;;;;19.61;59.55;102255.47;5026471;28;20053;-48
2022/06/17 00:29:30;;;;;;;9.05;5.50;;;;;;;19.64;59.21;102257.66;5035635;28;20060;-47
2022/06/17 00:32:18;;;;;;;13.70;5.65;;;;;;;19.68;59.67;102255.16;5035491;28;20400;-48
2022/06/17 00:35:06;;;;;;;11.13;5.97;;;;;;;19.69;59.45;102248.50;5023379;28;20580;-46
2022/06/17 00:37:54;;;;;;;9.20;6.25;;;;;;;19.67;59.53;102245.16;5034488;28;20133;-45
2022/06/17 00:40:43;;;;;;;14.85;6.78;;;;;;;19.63;59.56;102244.13;5025399;28;20084;-45
2022/06/17 00:43:34;;;;;;;18.48;6.20;;;;;;;19.56;59.70;102256.34;5011982;28;20443;-48
2022/06/17 00:46:51;;;;;;;10.10;6.45;;;;;;;19.54;59.82;102244.75;5020522;28;20042;-47
2022/06/17 00:50:13;;;;;;;11.32;5.68;;;;;;;19.51;59.72;102242.59;5024264;28;20124;-45
2022/06/17 00:53:06;;;;;;;10.48;6.47;;;;;;;19.51;59.65;102247.31;5028434;28;20060;-48
2022/06/17 00:56:11;;;;;;;11.90;6.25;;;;;;;19.50;59.27;102252.00;5003889;28;20050;-45
2022/06/17 00:59:05;;;;;;;13.75;6.15;;;;;;;19.52;59.15;102260.81;5020235;28;20045;-50
2022/06/17 01:02:02;;;;;;;11.10;5.43;;;;;;;19.51;59.36;102259.19;5031320;28;20059;-46
2022/06/17 01:04:54;;;;;;;9.88;5.45;;;;;;;19.49;59.29;102247.59;5023219;28;20041;-48
2022/06/17 01:07:50;;;;;;;10.75;5.53;;;;;;;19.51;59.15;102248.13;5020208;28;20142;-51
2022/06/17 01:10:38;;;;;;;;;;;;;;;19.55;59.14;102245.59;5011206;28;20066;-45
2022/06/17 01:13:26;;;;;;;11.52;6.18;;;;;;;19.57;59.38;102257.19;5004824;28;19921;-48
2022/06/17 01:15:53;;;;;;;11.10;6.38;;;;;;;19.59;59.20;102255.75;5011192;28;20034;-44
2022/06/17 01:18:44;;;;;;;12.02;5.82;;;;;;;19.56;58.97;102264.66;5023691;28;20052;-46
2022/06/17 01:22:00;;;;;;;10.18;5.72;;;;;;;19.50;58.87;102246.47;5018422;28;20075;-46
2022/06/17 01:24:48;;;;;;;9.52;5.90;;;;;;;19.49;58.90;102244.81;5019903;28;20057;-47
2022/06/17 01:28:07;;;;;;;11.38;5.90;;;;;;;19.45;58.96;102249.28;5024319;28;20084;-49
2022/06/17 01:30:59;;;;;;;10.82;5.50;;;;;;;19.43;58.95;102245.97;5015022;28;20137;-47
2022/06/17 01:33:48;;;;;;;10.68;6.20;;;;;;;19.41;58.82;102237.19;5017144;28;20049;-48
2022/06/17 01:36:35;;;;;;;14.27;6.10;;;;;;;19.35;58.97;102246.63;5031837;28;20396;-48
2022/06/17 01:39:23;;;;;;;10.57;5.80;;;;;;;19.35;58.93;102243.88;5032760;28;20045;-48
2022/06/17 01:42:11;;;;;;;11.02;5.70;;;;;;;19.31;59.12;102243.66;5022377;28;20046;-46
2022/06/17 01:45:00;;;;;;;12.95;5.80;;;;;;;19.29;59.10;102247.78;5024386;28;20045;-47
2022/06/17 01:47:47;;;;;;;11.32;5.60;;;;;;;19.27;59.28;102241.75;5032984;28;20463;-44
2022/06/17 01:50:36;;;;;;;13.60;6.03;;;;;;;19.28;59.12;102237.88;5026582;28;20037;-45
2022/06/17 01:53:09;;;;;;;10.18;5.82;;;;;;;19.26;59.37;102240.09;5010989;28;20046;-51
2022/06/17 01:56:13;;;;;;;10.73;6.13;;;;;;;19.24;59.42;102248.69;5007503;28;20054;-48
2022/06/17 01:59:13;;;;;;;11.60;6.30;;;;;;;19.23;59.42;102240.69;5020643;28;20042;-46
2022/06/17 02:02:03;;;;;;;8.85;6.05;;;;;;;19.19;59.61;102245.16;5006016;28;20053;-49
2022/06/17 02:04:57;;;;;;;12.95;5.80;;;;;;;19.12;59.89;102251.00;5013132;28;20049;-45
2022/06/17 02:08:02;;;;;;;9.18;5.85;;;;;;;19.07;59.92;102254.66;5008169;28;20400;-45
2022/06/17 02:10:51;;;;;;;9.85;5.85;;;;;;;19.05;60.25;102245.84;5015728;28;20053;-47
2022/06/17 02:13:39;;;;;;;16.73;6.25;;;;;;;19.06;60.20;102258.53;5030639;28;20048;-49
2022/06/17 02:16:51;;;;;;;13.68;6.38;;;;;;;19.07;60.19;102248.28;5032113;28;20546;-47
2022/06/17 02:19:58;;;;;;;9.63;5.60;;;;;;;19.03;60.05;102250.84;5030779;28;20048;-50
2022/06/17 02:22:46;;;;;;;10.05;6.25;;;;;;;19.03;60.29;102253.59;5028850;28;20041;-45
2022/06/17 02:25:44;;;;;;;11.75;6.18;;;;;;;19.01;60.55;102250.28;5030156;28;20480;-46
2022/06/17 02:28:32;;;;;;;10.77;6.45;;;;;;;18.98;60.70;102256.41;5019888;28;20072;-48
2022/06/17 02:31:20;;;;;;;12.52;6.35;;;;;;;18.99;60.77;102248.94;5014261;28;20053;-47
2022/06/17 02:34:10;;;;;;;11.65;6.95;;;;;;;18.99;60.70;102243.41;5026041;28;20128;-47
2022/06/17 02:37:11;;;;;;;11.45;6.55;;;;;;;18.92;60.99;102252.03;5000778;28;20041;-49
2022/06/17 02:40:02;;;;;;;10.60;6.38;;;;;;;18.89;61.08;102244.31;5026712;28;20042;-49
2022/06/17 02:42:52;;;;;;;9.80;6.60;;;;;;;18.86;61.27;102236.63;5006165;28;20049;-48
2022/06/17 02:45:45;;;;;;;12.60;6.47;;;;;;;18.82;61.65;102235.56;5020772;28;20132;-48
2022/06/17 02:48:40;;;;;;;12.50;7.20;;;;;;;18.84;61.51;102233.34;5027770;28;20399;-49
2022/06/17 02:51:30;;;;;;;;;;;;;;;18.89;61.07;102230.50;5007954;28;20046;-47
2022/06/17 02:54:40;;;;;;;11.15;6.75;;;;;;;18.92;60.79;102229.94;5022183;28;19921;-46
2022/06/17 02:57:30;;;;;;;12.07;6.28;;;;;;;18.92;60.31;102229.94;5018676;28;20531;-46
2022/06/17 03:00:20;;;;;;;10.60;7.15;;;;;;;18.93;60.00;102237.13;5027360;28;20041;-51
2022/06/17 03:03:11;;;;;;;10.43;6.85;;;;;;;18.96;59.71;102236.53;5031656;28;20045;-48
2022/06/17 03:06:00;;;;;;;13.55;7.30;;;;;;;18.97;59.64;102229.06;5011869;28;20096;-47
2022/06/17 03:08:50;;;;;;;12.50;7.45;;;;;;;18.93;59.57;102232.41;5028578;28;20129;-47
2022/06/17 03:11:38;;;;;;;13.20;7.40;;;;;;;18.91;59.71;102233.81;5010954;28;20403;-47
2022/06/17 03:14:30;;;;;;;10.48;6.80;;;;;;;18.92;59.63;102236.28;5032122;28;20441;-48
2022/06/17 03:17:19;;;;;;;13.63;7.40;;;;;;;18.94;59.35;102233.22;5032232;28;20052;-49
2022/06/17 03:20:34;;;;;;;13.25;6.82;;;;;;;18.90;59.36;102241.25;5014975;28;20064;-52
2022/06/17 03:23:30;;;;;;;14.48;7.22;;;;;;;18.89;59.50;102238.81;5008083;28;20137;-48
2022/06/17 03:26:14;;;;;;;9.13;6.78;;;;;;;18.89;59.64;102244.31;5025999;28;20492;-48
2022/06/17 03:29:03;;;;;;;15.15;7.47;;;;;;;18.90;59.48;102248.72;5017611;28;20077;-49
2022/06/17 03:32:16;;;;;;;13.65;7.22;;;;;;;18.92;59.64;102241.78;5025007;28;20125;-53
2022/06/17 03:35:05;;;;;;;12.65;7.47;;;;;;;18.94;59.53;102250.63;5025652;28;20081;-44
2022/06/17 03:38:24;;;;;;;10.27;7.07;;;;;;;18.94;59.59;102260.84;5006749;28;20041;-45
2022/06/17 03:41:33;;;;;;;11.13;7.10;;;;;;;18.94;59.25;102267.19;5022172;28;20574;-50
2022/06/17 03:44:28;;;;;;;13.18;7.55;;;;;;;18.96;59.14;102269.69;5035448;28;20046;-54
2022/06/17 03:47:38;;;;;;;12.98;7.13;;;;;;;18.97;58.90;102271.31;5017269;28;20049;-49
2022/06/17 03:50:32;;;;;;;12.43;6.75;;;;;;;18.92;59.51;102276.88;5014592;28;20409;-48
2022/06/17 03:53:33;;;;;;;11.00;6.95;;;;;;;18.88;59.66;102273.03;5013073;28;20056;-49
2022/06/17 03:56:24;;;;;;;13.00;7.30;;;;;;;18.88;59.58;102267.53;5035507;28;20073;-47
2022/06/17 03:59:18;;;;;;;12.88;7.38;;;;;;;18.91;59.72;102278.00;5019215;28;20046;-47
2022/06/17 04:02:11;;;;;;;17.40;8.20;;;;;;;18.88;59.82;102268.38;5026040;28;20108;-48
2022/06/17 04:05:00;;;;;;;12.40;6.57;;;;;;;18.87;59.83;102271.41;5022862;28;20124;-47
2022/06/17 04:07:48;;;;;;;14.43;8.15;;;;;;;18.86;59.61;102269.78;5015250;28;20050;-50
2022/06/17 04:10:37;;;;;;;12.18;7.28;;;;;;;18.85;59.39;102268.91;5022167;28;20488;-51
2022/06/17 04:13:28;;;;;;;20.45;8.07;;;;;;;18.88;59.54;102275.81;5026403;28;20037;-48
2022/06/17 04:17:07;;;;;;;14.00;7.50;;;;;;;18.95;59.40;102273.53;5002780;28;20093;-48
2022/06/17 04:20:33;;;;;;;13.13;7.53;;;;;;;18.97;59.07;102267.72;5009835;28;20464;-46
2022/06/17 04:23:28;;;;;;;14.45;8.48;;;;;;;18.99;59.31;102263.56;5019050;28;20059;-47
2022/06/17 04:26:40;;;;;;;10.45;7.03;;;;;;;19.00;59.35;102265.22;5014453;28;20050;-47
2022/06/17 04:29:42;;;;;;;14.30;8.68;;;;;;;18.99;59.08;102252.50;5017372;28;20045;-48
2022/06/17 04:32:33;;;;;;;12.73;8.52;;;;;;;18.99;59.20;102251.69;5014556;28;20045;-49
2022/06/17 04:35:21;;;;;;;15.57;8.25;;;;;;;18.96;59.37;102257.81;5024721;28;20100;-50
2022/06/17 04:38:09;;;;;;;11.73;7.88;;;;;;;18.94;59.26;102258.91;5019271;28;20049;-48
2022/06/17 04:41:37;;;;;;;15.00;8.70;;;;;;;18.94;59.16;102252.56;5024749;28;20041;-47
2022/06/17 04:44:41;;;;;;;;;;;;;;;18.94;58.89;102249.81;5032784;28;20396;-48
2022/06/17 04:47:30;;;;;;;12.82;8.60;;;;;;;18.93;58.98;102251.75;5027112;28;19967;-47
2022/06/17 04:50:25;;;;;;;12.10;8.00;;;;;;;18.93;59.07;102248.16;5006077;28;20053;-48
2022/06/17 04:53:16;;;;;;;16.63;8.95;;;;;;;18.87;59.13;102243.78;5044556;28;20056;-48
2022/06/17 04:56:35;;;;;;;13.95;9.07;;;;;;;18.86;59.40;102244.91;5016641;28;20049;-48
2022/06/17 04:59:44;;;;;;;12.40;8.23;;;;;;;18.85;59.42;102241.31;5017415;28;20436;-48
2022/06/17 05:02:33;;;;;;;16.37;9.03;;;;;;;18.88;59.54;102239.91;5012222;28;20407;-48
2022/06/17 05:05:41;;;;;;;15.23;8.70;;;;;;;18.90;59.46;102240.44;5029960;28;20139;-48
2022/06/17 05:08:33;;;;;;;14.38;8.57;;;;;;;18.91;59.79;102233.81;5027964;28;20041;-48
2022/06/17 05:11:33;;;;;;;17.65;8.98;;;;;;;18.95;59.53;102234.88;5030398;28;20500;-46
2022/06/17 05:14:32;;;;;;;15.85;8.32;;;;;;;18.97;59.71;102240.94;5026604;28;20407;-51
2022/06/17 05:17:21;;;;;;;16.02;8.32;;;;;;;19.02;59.47;102240.06;5026634;28;20042;-47
2022/06/17 05:20:14;;;;;;;14.40;9.57;;;;;;;19.01;59.44;102238.44;5019044;28;20049;-50
2022/06/17 05:23:07;;;;;;;15.00;8.70;;;;;;;18.99;59.70;102235.94;5017177;28;20057;-49
2022/06/17 05:26:00;;;;;;;12.90;8.35;;;;;;;19.05;59.46;102228.41;5031063;28;20500;-45
2022/06/17 05:28:48;;;;;;;16.27;9.80;;;;;;;19.08;59.31;102233.38;5023694;28;20045;-48
2022/06/17 05:31:36;;;;;;;15.73;7.78;;;;;;;19.11;59.61;102225.31;5033005;28;20118;-44
2022/06/17 05:34:25;;;;;;;12.07;7.70;;;;;;;19.15;59.45;102229.16;5016728;28;20041;-45
2022/06/17 05:37:13;;;;;;;17.15;8.70;;;;;;;19.18;59.27;102236.03;5024116;28;20046;-45
2022/06/17 05:40:04;;;;;;;17.48;8.30;;;;;;;19.18;59.57;102237.97;5026214;28;20151;-56
2022/06/17 05:42:52;;;;;;;16.13;8.73;;;;;;;19.20;59.13;102235.75;5032341;28;20041;-47
2022/06/17 05:45:40;;;;;;;14.40;8.75;;;;;;;19.20;59.33;102235.75;5022413;28;20160;-47
2022/06/17 05:48:47;;;;;;;13.68;8.52;;;;;;;19.16;59.36;102250.13;5019870;28;20108;-46
2022/06/17 05:51:51;;;;;;;11.57;7.07;;;;;;;19.18;59.76;102249.03;5019117;28;20037;-43
2022/06/17 05:54:47;;;;;;;14.45;8.50;;;;;;;19.24;59.82;102245.09;5017456;28;20045;-50
2022/06/17 05:57:38;;;;;;;11.68;7.88;;;;;;;19.31;59.72;102245.56;5012868;28;20056;-47
2022/06/17 06:00:27;;;;;;;16.85;8.60;;;;;;;19.33;59.85;102227.56;5019970;28;20041;-49
2022/06/17 06:03:18;;;;;;;12.80;8.77;;;;;;;19.27;59.92;102223.22;5013504;28;20050;-48
2022/06/17 06:06:06;;;;;;;16.73;7.63;;;;;;;19.28;59.97;102215.75;5007346;28;20473;-50
2022/06/17 06:08:54;;;;;;;16.90;9.50;;;;;;;19.29;60.55;102211.88;5024466;28;20053;-48
2022/06/17 06:11:42;;;;;;;21.48;9.20;;;;;;;19.31;60.49;102209.63;5022447;28;20046;-47
2022/06/17 06:14:32;;;;;;;15.40;8.95;;;;;;;19.33;60.01;102218.47;5006479;28;20120;-45
2022/06/17 06:17:21;;;;;;;18.75;9.77;;;;;;;19.35;59.92;102216.25;5020704;28;20116;-48
2022/06/17 06:20:10;;;;;;;20.40;9.05;;;;;;;19.37;59.81;102217.59;5026218;28;20042;-49
2022/06/17 06:22:58;;;;;;;13.85;8.65;;;;;;;19.40;59.92;102218.94;5021186;28;20045;-46
2022/06/17 06:25:46;;;;;;;18.42;9.02;;;;;;;19.42;60.06;102213.94;5020946;28;20048;-48
2022/06/17 06:28:33;;;;;;;19.02;8.98;;;;;;;19.44;60.11;102203.44;5025480;28;20112;-47
2022/06/17 06:31:36;;;;;;;15.88;8.27;;;;;;;19.49;60.43;102200.59;5018033;28;20054;-46
2022/06/17 06:34:38;;;;;;;16.95;8.40;;;;;;;19.56;59.77;102203.81;5027237;28;20539;-47
2022/06/17 06:37:25;;;;;;;11.00;7.07;;;;;;;19.56;59.76;102212.13;5021489;28;20045;-48
2022/06/17 06:40:14;;;;;;;11.40;6.75;;;;;;;19.57;59.39;102213.75;5021217;28;20447;-48
2022/06/17 06:43:02;;;;;;;12.15;7.80;;;;;;;19.61;58.97;102214.00;5017125;28;20045;-50
2022/06/17 06:46:25;;;;;;;12.68;7.28;;;;;;;19.65;58.85;102217.00;5024385;28;20396;-51
2022/06/17 06:49:17;;;;;;;14.90;7.80;;;;;;;19.67;58.53;102214.75;5026975;28;20489;-49
2022/06/17 06:52:05;;;;;;;10.27;6.22;;;;;;;19.72;58.62;102217.47;5020757;28;20054;-47
2022/06/17 06:54:53;;;;;;;18.45;7.60;;;;;;;19.74;58.85;102218.81;5020520;28;20455;-45
2022/06/17 06:57:52;;;;;;;15.23;7.10;;;;;;;19.78;59.01;102221.84;5022577;28;20081;-47
2022/06/17 07:00:45;;;;;;;13.43;6.82;;;;;;;19.82;59.03;102224.81;5015257;28;20056;-47
2022/06/17 07:03:33;;;;;;;14.57;7.57;;;;;;;19.84;58.76;102219.81;5027521;28;20503;-48
2022/06/17 07:06:21;;;;;;;16.08;7.65;;;;;;;19.83;57.70;102216.25;5031372;28;20041;-44
2022/06/17 07:09:12;;;;;;;11.05;6.85;;;;;;;19.84;57.38;102212.34;5025341;28;20046;-55
2022/06/17 07:12:00;;;;;;;9.73;6.38;;;;;;;19.85;57.45;102211.25;5020323;28;20500;-53
2022/06/17 07:14:48;;;;;;;14.52;7.18;;;;;;;19.87;57.39;102210.94;5025879;28;20042;-55
2022/06/17 07:17:35;;;;;;;15.48;7.20;;;;;;;19.89;57.38;102217.84;5019775;28;20050;-50
2022/06/17 07:20:24;;;;;;;16.85;6.20;;;;;;;19.93;57.67;102218.88;5031358;28;20049;-51
2022/06/17 07:23:15;;;;;;;14.63;6.65;;;;;;;20.02;57.34;102218.22;5024915;28;20049;-53
2022/06/17 07:26:09;;;;;;;13.57;7.28;;;;;;;20.05;57.50;102212.88;5029749;28;20045;-51
2022/06/17 07:28:56;;;;;;;12.48;6.55;;;;;;;20.09;57.56;102213.13;5018971;28;20052;-52
2022/06/17 07:31:44;;;;;;;12.40;6.55;;;;;;;20.11;57.63;102199.81;5020533;28;20512;-48
2022/06/17 07:34:32;;;;;;;13.75;7.20;;;;;;;20.14;57.79;102199.22;5016375;28;20041;-52
2022/06/17 07:40:27;;;;;;;14.65;6.93;;;;;;;20.14;57.18;102197.28;5029560;28;20412;-52
2022/06/17 07:43:16;;;;;;;14.95;6.90;;;;;;;20.17;57.01;102198.63;5028308;28;20045;-49
2022/06/17 07:46:05;;;;;;;11.95;6.82;;;;;;;20.19;57.14;102208.25;5017788;28;20046;-50
2022/06/17 07:48:52;;;;;;;14.27;6.97;;;;;;;20.24;57.02;102218.44;5014956;28;20396;-51
2022/06/17 07:51:40;;;;;;;12.38;6.15;;;;;;;20.28;57.91;102222.25;5026466;28;20049;-51
2022/06/17 07:54:28;;;;;;;11.00;4.53;;;;;;;20.34;57.56;102226.56;5026778;28;20050;-56
2022/06/17 07:57:16;;;;;;;14.25;6.45;;;;;;;20.41;56.83;102221.50;5028802;28;20056;-53
2022/06/17 08:00:06;;;;;;;11.23;6.30;;;;;;;20.45;57.11;102216.19;5024942;28;20049;-48
2022/06/17 08:02:58;;;;;;;10.93;5.93;;;;;;;20.49;57.37;102213.63;5022889;28;20049;-51
2022/06/17 08:05:49;;;;;;;14.95;6.13;;;;;;;20.54;57.42;102224.59;5013633;28;20046;-51
2022/06/17 08:08:37;;;;;;;13.05;6.70;;;;;;;20.60;57.03;102209.59;5028305;28;20052;-54
2022/06/17 08:11:24;;;;;;;13.52;6.78;;;;;;;20.64;56.93;102213.41;5035750;28;20042;-51
2022/06/17 08:14:12;;;;;;;13.80;6.32;;;;;;;20.69;56.26;102221.63;5033695;28;20049;-49
2022/06/17 08:17:00;;;;;;;13.35;6.60;;;;;;;20.76;55.01;102232.34;5020002;28;20513;-52
2022/06/17 08:19:50;;;;;;;8.45;4.40;;;;;;;20.80;55.41;102236.94;5033398;28;20045;-48
2022/06/17 08:22:38;;;;;;;9.68;5.10;;;;;;;20.84;55.91;102235.22;5026071;28;20057;-49
2022/06/17 08:25:26;;;;;;;8.77;4.25;;;;;;;20.91;55.22;102222.94;5023157;28;20485;-50
2022/06/17 08:28:15;;;;;;;12.10;5.80;;;;;;;20.94;53.95;102222.31;5034031;28;20192;-48
2022/06/17 08:31:03;;;;;;;9.82;4.72;;;;;;;21.04;52.40;102224.91;5026684;28;20056;-48
2022/06/17 08:33:51;;;;;;;13.38;5.10;;;;;;;21.10;52.24;102231.19;5033652;28;20045;-51
2022/06/17 08:36:38;;;;;;;12.40;5.80;;;;;;;21.12;52.16;102223.38;5021115;28;20410;-49
2022/06/17 08:39:26;;;;;;;10.70;5.30;;;;;;;21.13;53.22;102228.63;5016509;28;20506;-48
2022/06/17 08:42:49;;;;;;;10.18;4.28;;;;;;;21.13;55.03;102216.72;5032609;28;20511;-51
2022/06/17 08:46:25;;;;;;;9.73;4.00;;;;;;;21.15;56.49;102209.72;5019712;28;20046;-49
2022/06/17 08:49:34;;;;;;;10.25;4.85;;;;;;;21.17;52.80;102209.44;4984874;28;20050;-50
2022/06/17 08:52:29;;;;;;;7.88;4.65;;;;;;;21.20;52.41;102201.31;5032350;28;20042;-48
2022/06/17 08:55:26;;;;;;;11.57;5.75;;;;;;;21.24;51.97;102194.03;5025228;28;20050;-49
2022/06/17 08:58:16;;;;;;;13.70;5.95;;;;;;;21.31;51.86;102203.88;5038115;28;20060;-50
2022/06/17 09:01:15;;;;;;;8.13;4.38;;;;;;;21.39;52.35;102211.50;5015703;28;20117;-50
2022/06/17 09:04:31;;;;;;;12.68;5.03;;;;;;;21.45;51.84;102213.06;5021017;28;20052;-50
2022/06/17 09:07:28;;;;;;;13.43;6.80;;;;;;;21.52;51.42;102223.75;5032321;28;20045;-48
2022/06/17 09:10:43;;;;;;;10.48;4.80;;;;;;;21.60;52.91;102223.88;5032307;28;20046;-49
2022/06/17 09:14:12;;;;;;;7.00;3.35;;;;;;;21.65;51.80;102220.97;5027902;28;20381;-45
2022/06/17 09:17:03;;;;;;;12.30;4.85;;;;;;;21.69;51.94;102219.25;5022138;28;20054;-51
2022/06/17 09:19:53;;;;;;;9.55;4.35;;;;;;;21.73;53.88;102224.16;5030971;28;20045;-49
2022/06/17 09:22:45;;;;;;;9.18;4.22;;;;;;;21.75;52.89;102203.28;5019954;28;20092;-50
2022/06/17 09:25:42;;;;;;;12.45;5.75;;;;;;;21.81;50.58;102201.22;5026292;28;20077;-49
2022/06/17 09:28:37;;;;;;;11.30;5.93;;;;;;;21.91;50.55;102198.22;5021621;28;20112;-47
2022/06/17 09:31:49;;;;;;;16.83;6.47;;;;;;;21.98;49.99;102195.84;5002023;28;20370;-51
2022/06/17 09:34:50;;;;;;;15.98;6.10;;;;;;;22.03;49.58;102198.53;5019542;28;20113;-50
2022/06/17 09:37:32;;;;;;;12.98;5.50;;;;;;;22.05;49.31;102201.78;5025619;28;20050;-50
2022/06/17 09:40:29;;;;;;;8.80;4.45;;;;;;;22.07;49.90;102198.69;5024816;28;20488;-54
2022/06/17 09:43:17;;;;;;;12.55;5.35;;;;;;;22.13;49.58;102203.81;5013456;28;20044;-49
2022/06/17 09:46:35;;;;;;;15.07;5.20;;;;;;;22.18;49.55;102202.91;5020667;28;20042;-47
2022/06/17 09:49:48;;;;;;;11.50;4.78;;;;;;;22.24;49.49;102204.44;5028181;28;20058;-50
2022/06/17 09:52:52;;;;;;;15.15;5.72;;;;;;;22.22;49.47;102205.88;5033304;28;20057;-48
2022/06/17 09:56:19;;;;;;;11.13;4.07;;;;;;;22.24;49.96;102209.16;5022742;28;20476;-49
2022/06/17 09:59:27;;;;;;;8.80;4.03;;;;;;;22.29;48.90;102207.09;5026010;28;20061;-49
2022/06/17 10:02:35;;;;;;;8.05;3.90;;;;;;;22.39;48.68;102205.19;5017547;28;20061;-49
2022/06/17 10:05:35;;;;;;;8.90;3.83;;;;;;;22.47;46.80;102198.91;5015784;28;20493;-51
2022/06/17 10:08:37;;;;;;;9.90;3.90;;;;;;;22.55;46.09;102198.94;5015370;28;20404;-52
2022/06/17 10:11:46;;;;;;;10.27;3.63;;;;;;;22.64;45.65;102192.66;5030501;28;20049;-49
2022/06/17 10:15:31;;;;;;;9.23;3.50;;;;;;;22.76;44.97;102179.00;5037650;28;20050;-53
2022/06/17 10:18:35;;;;;;;8.55;3.53;;;;;;;22.89;44.82;102174.47;5025220;28;20056;-50
2022/06/17 10:21:36;;;;;;;8.52;3.42;;;;;;;22.96;43.08;102169.28;5007367;28;20042;-50
2022/06/17 10:24:53;;;;;;;7.75;3.20;;;;;;;22.96;42.55;102167.31;5029179;28;20058;-49
2022/06/17 10:27:41;;;;;;;12.90;3.10;;;;;;;22.95;43.46;102162.91;5017095;28;20128;-50
2022/06/17 10:30:49;;;;;;;9.55;3.53;;;;;;;22.97;43.46;102157.84;5022932;28;20447;-48
2022/06/17 10:33:39;;;;;;;8.15;3.42;;;;;;;23.02;42.87;102159.72;5027626;28;20104;-50
2022/06/17 10:36:28;;;;;;;10.07;3.80;;;;;;;23.03;43.13;102154.97;5014480;28;20407;-55
2022/06/17 10:39:17;;;;;;;9.32;3.80;;;;;;;23.09;42.74;102150.88;5012895;28;20058;-51
2022/06/17 10:42:07;;;;;;;7.68;3.38;;;;;;;23.15;43.19;102149.63;5015651;28;20049;-51
2022/06/17 10:44:59;;;;;;;6.72;3.10;;;;;;;23.20;44.37;102163.38;5020832;28;20432;-51
2022/06/17 10:48:14;;;;;;;11.32;3.63;;;;;;;23.29;44.21;102160.63;5012359;28;20424;-49
2022/06/17 10:51:02;;;;;;;;;;;;;;;23.32;46.26;102160.78;5012382;28;20144;-50
2022/06/17 10:53:54;;;;;;;7.40;3.55;;;;;;;23.31;44.01;102156.38;5010209;28;20269;-51
2022/06/17 10:56:48;;;;;;;8.25;3.85;;;;;;;23.34;44.41;102152.94;5015429;28;20054;-50
2022/06/17 10:59:41;;;;;;;9.73;4.30;;;;;;;23.31;44.14;102153.59;5015312;28;20589;-51
2022/06/17 11:02:31;;;;;;;9.25;3.90;;;;;;;23.39;43.43;102146.41;5029725;28;20488;-52
2022/06/17 11:05:33;;;;;;;6.22;3.40;;;;;;;23.36;44.16;102144.28;5030935;28;20057;-52
2022/06/17 11:08:25;;;;;;;9.05;3.45;;;;;;;23.41;44.77;102135.78;5023696;28;20053;-49
2022/06/17 11:14:27;;;;;;;7.82;3.22;;;;;;;23.57;43.58;102138.91;5017665;28;20049;-48
2022/06/17 11:17:40;;;;;;;6.22;2.60;;;;;;;23.55;46.00;102124.53;5004536;28;20049;-46
2022/06/17 11:20:31;;;;;;;8.32;3.33;;;;;;;23.47;46.88;102115.00;5031344;28;20045;-50
2022/06/17 11:23:44;;;;;;;8.10;3.60;;;;;;;23.59;43.51;102117.16;5029006;28;20484;-49
2022/06/17 11:26:34;;;;;;;9.23;3.50;;;;;;;23.72;43.02;102116.19;5022400;28;20053;-52
2022/06/17 11:29:23;;;;;;;8.55;3.22;;;;;;;23.77;41.14;102112.47;5019517;28;20557;-49
2022/06/17 11:32:28;;;;;;;9.02;3.83;;;;;;;23.86;41.45;102101.31;5025429;28;20068;-50
2022/06/17 11:35:26;;;;;;;7.65;3.10;;;;;;;23.86;42.28;102092.97;5030168;28;20397;-50
2022/06/17 11:38:15;;;;;;;7.10;2.92;;;;;;;23.83;44.62;102093.63;5018585;28;20050;-51
2022/06/17 11:41:27;;;;;;;5.70;3.28;;;;;;;23.79;45.90;102093.50;5026082;28;20504;-48
2022/06/17 11:44:17;;;;;;;12.23;4.50;;;;;;;23.94;42.68;102086.59;5025790;28;20050;-52
2022/06/17 11:47:05;;;;;;;6.45;3.30;;;;;;;23.99;42.94;102084.47;5025099;28;20050;-49
2022/06/17 11:49:57;;;;;;;7.35;3.00;;;;;;;24.01;42.48;102086.91;5018984;28;20172;-51
2022/06/17 11:52:46;;;;;;;6.95;3.10;;;;;;;23.99;42.84;102080.84;5034741;28;20049;-52
2022/06/17 11:55:43;;;;;;;4.65;2.60;;;;;;;24.09;44.15;102083.28;5033450;28;20042;-48
2022/06/17 11:59:13;;;;;;;5.35;2.78;;;;;;;24.18;44.84;102078.53;5031794;28;20053;-49
2022/06/17 12:02:08;;;;;;;6.28;2.50;;;;;;;24.13;44.17;102081.50;5018907;28;20045;-48
2022/06/17 12:05:07;;;;;;;6.25;3.00;;;;;;;24.23;41.89;102060.84;5029722;28;20519;-49
2022/06/17 12:08:03;;;;;;;7.97;2.80;;;;;;;24.23;45.03;102061.66;5025988;28;20046;-50
2022/06/17 12:10:51;;;;;;;;;;;;;;;24.23;42.04;102058.88;5030374;28;20045;-49
2022/06/17 12:13:49;;;;;;;5.28;2.70;;;;;;;24.21;44.62;102046.41;5028600;28;19929;-52
2022/06/17 12:16:42;;;;;;;8.43;2.92;;;;;;;24.45;40.05;102051.44;5016338;28;20050;-48
2022/06/17 12:19:49;;;;;;;6.47;2.60;;;;;;;24.48;40.79;102045.22;5028294;28;20041;-50
2022/06/17 12:22:48;;;;;;;6.90;2.80;;;;;;;24.52;41.49;102046.19;5021772;28;20041;-49
2022/06/17 12:25:50;;;;;;;5.72;2.80;;;;;;;24.56;39.74;102032.44;5035051;28;20038;-52
2022/06/17 12:28:46;;;;;;;7.57;2.80;;;;;;;24.59;40.50;102034.53;5028157;28;20408;-48
2022/06/17 12:31:46;;;;;;;5.78;2.63;;;;;;;24.74;40.10;102030.38;5033162;28;20416;-47
2022/06/17 12:34:44;;;;;;;5.55;2.58;;;;;;;24.73;40.82;102026.75;5033406;28;20041;-49
2022/06/17 12:37:35;;;;;;;4.95;2.40;;;;;;;24.85;38.09;102021.28;5019785;28;20042;-46
2022/06/17 12:40:37;;;;;;;4.60;2.40;;;;;;;24.90;37.65;102022.25;5034817;28;20046;-49
2022/06/17 12:44:01;;;;;;;4.72;2.40;;;;;;;25.02;37.72;102023.16;5020112;28;20057;-47
2022/06/17 12:47:07;;;;;;;4.00;2.15;;;;;;;25.01;39.81;102024.28;5017344;28;20460;-47
2022/06/17 12:53:19;;;;;;;6.85;3.10;;;;;;;25.13;37.57;102019.97;5024594;28;20053;-51
2022/06/17 12:56:55;;;;;;;4.40;2.35;;;;;;;25.17;36.93;102020.94;5029960;28;20072;-47
2022/06/17 12:59:53;;;;;;;4.93;2.10;;;;;;;25.21;36.86;102016.34;5032588;28;20507;-50
2022/06/17 13:03:08;;;;;;;6.63;2.35;;;;;;;25.33;37.21;102018.38;5013834;28;20505;-50
2022/06/17 13:06:00;;;;;;;3.13;2.20;;;;;;;25.37;37.22;102003.41;5020718;28;20136;-50
2022/06/17 13:09:06;;;;;;;6.55;2.38;;;;;;;25.34;37.16;102012.47;5034631;28;20045;-48
2022/06/17 13:12:12;;;;;;;5.65;2.38;;;;;;;25.50;35.61;101996.75;5033269;28;20140;-49
2022/06/17 13:15:06;;;;;;;5.80;2.42;;;;;;;25.46;38.92;102001.34;5031422;28;20129;-48
2022/06/17 13:17:56;;;;;;;4.22;2.10;;;;;;;25.44;36.42;101992.50;5015822;28;20038;-46
2022/06/17 13:20:49;;;;;;;3.85;2.08;;;;;;;25.51;36.23;101992.78;5032102;28;20045;-49
2022/06/17 13:23:53;;;;;;;4.65;2.30;;;;;;;25.59;36.75;101987.47;5025308;28;20436;-49
2022/06/17 13:26:45;;;;;;;4.38;2.33;;;;;;;25.60;36.32;101975.16;5019232;28;20049;-50
2022/06/17 13:29:46;;;;;;;3.70;2.30;;;;;;;25.64;36.56;101970.50;5019275;28;20048;-48
2022/06/17 13:32:34;;;;;;;4.07;2.22;;;;;;;25.70;36.35;101972.72;5014400;28;20479;-47
2022/06/17 13:35:28;;;;;;;;;;;;;;;25.66;38.51;101976.56;5015661;28;20057;-48
2022/06/17 13:38:51;;;;;;;4.57;2.67;;;;;;;25.64;38.42;101968.53;5021712;28;19920;-46
2022/06/17 13:41:58;;;;;;;6.38;2.78;;;;;;;25.62;37.96;101970.84;5024564;28;20049;-48
2022/06/17 13:45:23;;;;;;;6.70;2.65;;;;;;;25.76;36.30;101970.56;5043600;28;20045;-49